Terminal Aerodrome Forecast
Issued by NWS Milwaukee/Sullivan, WI

Home | Current Version | Previous Version | Text Only | Print | Product List | Glossary On
Versions: 1 2 3 4 5 6 7 8 9 10 11 12 13 14 15 16 17 18 19 20 21 22 23 24 25 26 27 28 29 30 31 32 33 34 35 36 37 38 39 40 41
000
FTUS43 KMKX 301359 AAB
TAFMKE
TAF AMD
KMKE 301359Z 3014/3118 06012KT 5SM -RA BR OVC004
     FM301700 08016G27KT 3SM RA OVC008
     FM302200 05014G23KT 5SM -RA OVC003
     FM310000 05015G23KT 6SM -RA OVC003
     FM310800 02015G23KT P6SM OVC003
     FM311500 01014G24KT P6SM OVC008=

USA.gov is the U.S. government's official web portal to all federal, state and local government web resources and services.